sensor_id;sensor_type;location;lat;lon;timestamp;pressure;altitude;pressure_sealevel;temperature;humidity
72359;BME280;60317;48.880;-0.862;2023-10-08T00:01:23;101348.75;;;18.99;56.24
72359;BME280;60317;48.880;-0.862;2023-10-08T00:03:49;101348.75;;;18.99;56.24
72359;BME280;60317;48.880;-0.862;2023-10-08T00:06:16;101344.28;;;18.99;56.32
72359;BME280;60317;48.880;-0.862;2023-10-08T00:08:43;101347.88;;;18.98;56.36
72359;BME280;60317;48.880;-0.862;2023-10-08T00:11:09;101344.28;;;18.99;56.31
72359;BME280;60317;48.880;-0.862;2023-10-08T00:13:37;101346.94;;;18.99;56.34
72359;BME280;60317;48.880;-0.862;2023-10-08T00:16:03;101347.88;;;18.98;56.22
72359;BME280;60317;48.880;-0.862;2023-10-08T00:18:30;101347.03;;;18.98;56.24
72359;BME280;60317;48.880;-0.862;2023-10-08T00:20:56;101343.50;;;18.97;56.12
72359;BME280;60317;48.880;-0.862;2023-10-08T00:23:22;101342.53;;;18.98;56.15
72359;BME280;60317;48.880;-0.862;2023-10-08T00:25:49;101345.31;;;18.97;56.31
72359;BME280;60317;48.880;-0.862;2023-10-08T00:28:15;101342.53;;;18.98;56.11
72359;BME280;60317;48.880;-0.862;2023-10-08T00:30:43;101335.47;;;18.97;56.10
72359;BME280;60317;48.880;-0.862;2023-10-08T00:33:09;101341.69;;;18.98;56.26
72359;BME280;60317;48.880;-0.862;2023-10-08T00:35:37;101336.44;;;18.96;56.16
72359;BME280;60317;48.880;-0.862;2023-10-08T00:38:03;101333.75;;;18.96;56.11
72359;BME280;60317;48.880;-0.862;2023-10-08T00:40:35;101336.44;;;18.96;56.23
72359;BME280;60317;48.880;-0.862;2023-10-08T00:43:01;101337.28;;;18.97;56.16
72359;BME280;60317;48.880;-0.862;2023-10-08T00:45:28;101337.38;;;18.95;56.24
72359;BME280;60317;48.880;-0.862;2023-10-08T00:47:55;101333.84;;;18.95;56.25
72359;BME280;60317;48.880;-0.862;2023-10-08T00:50:22;101332.00;;;18.95;56.17
72359;BME280;60317;48.880;-0.862;2023-10-08T00:52:48;101326.66;;;18.95;56.06
72359;BME280;60317;48.880;-0.862;2023-10-08T00:55:15;101328.47;;;18.95;56.05
72359;BME280;60317;48.880;-0.862;2023-10-08T00:57:42;101326.78;;;18.94;56.13
72359;BME280;60317;48.880;-0.862;2023-10-08T01:00:09;101327.63;;;18.94;56.10
72359;BME280;60317;48.880;-0.862;2023-10-08T01:02:36;101315.09;;;18.95;56.01
72359;BME280;60317;48.880;-0.862;2023-10-08T01:05:04;101322.28;;;18.94;56.11
72359;BME280;60317;48.880;-0.862;2023-10-08T01:07:30;101325.81;;;18.95;56.00
72359;BME280;60317;48.880;-0.862;2023-10-08T01:09:58;101323.97;;;18.95;56.15
72359;BME280;60317;48.880;-0.862;2023-10-08T01:12:25;101323.25;;;18.93;56.12
72359;BME280;60317;48.880;-0.862;2023-10-08T01:14:52;101323.25;;;18.93;56.08
72359;BME280;60317;48.880;-0.862;2023-10-08T01:17:19;101324.09;;;18.94;56.13
72359;BME280;60317;48.880;-0.862;2023-10-08T01:19:45;101317.88;;;18.93;56.07
72359;BME280;60317;48.880;-0.862;2023-10-08T01:22:13;101318.75;;;18.94;56.05
72359;BME280;60317;48.880;-0.862;2023-10-08T01:24:40;101305.47;;;18.92;55.73
72359;BME280;60317;48.880;-0.862;2023-10-08T01:27:06;101307.16;;;18.93;55.95
72359;BME280;60317;48.880;-0.862;2023-10-08T01:29:32;101309.00;;;18.93;56.02
72359;BME280;60317;48.880;-0.862;2023-10-08T01:31:59;101312.53;;;18.93;56.01
72359;BME280;60317;48.880;-0.862;2023-10-08T01:34:25;101310.81;;;18.92;55.92
72359;BME280;60317;48.880;-0.862;2023-10-08T01:36:51;101306.31;;;18.93;55.95
72359;BME280;60317;48.880;-0.862;2023-10-08T01:39:19;101307.25;;;18.92;55.91
72359;BME280;60317;48.880;-0.862;2023-10-08T01:41:45;101306.31;;;18.93;55.84
72359;BME280;60317;48.880;-0.862;2023-10-08T01:44:12;101302.78;;;18.92;56.03
72359;BME280;60317;48.880;-0.862;2023-10-08T01:46:38;101297.44;;;18.92;55.80
72359;BME280;60317;48.880;-0.862;2023-10-08T01:49:05;101293.00;;;18.91;56.01
72359;BME280;60317;48.880;-0.862;2023-10-08T01:51:31;101293.00;;;18.91;55.87
72359;BME280;60317;48.880;-0.862;2023-10-08T01:53:57;101289.38;;;18.92;55.80
72359;BME280;60317;48.880;-0.862;2023-10-08T01:56:25;101282.28;;;18.91;55.82
72359;BME280;60317;48.880;-0.862;2023-10-08T01:58:52;101293.00;;;18.91;55.89
72359;BME280;60317;48.880;-0.862;2023-10-08T02:01:19;101287.66;;;18.91;55.75
72359;BME280;60317;48.880;-0.862;2023-10-08T02:03:45;101291.19;;;18.92;55.86
72359;BME280;60317;48.880;-0.862;2023-10-08T02:06:12;101286.72;;;18.92;55.80
72359;BME280;60317;48.880;-0.862;2023-10-08T02:08:38;101287.66;;;18.91;55.81
72359;BME280;60317;48.880;-0.862;2023-10-08T02:11:05;101286.78;;;18.91;55.69
72359;BME280;60317;48.880;-0.862;2023-10-08T02:13:32;101276.09;;;18.91;55.82
72359;BME280;60317;48.880;-0.862;2023-10-08T02:15:59;101273.41;;;18.91;55.76
72359;BME280;60317;48.880;-0.862;2023-10-08T02:18:25;101276.19;;;18.89;55.87
72359;BME280;60317;48.880;-0.862;2023-10-08T02:20:52;101268.16;;;18.89;55.71
72359;BME280;60317;48.880;-0.862;2023-10-08T02:23:18;101270.84;;;18.89;55.79
72359;BME280;60317;48.880;-0.862;2023-10-08T02:25:45;101269.00;;;18.90;55.62
72359;BME280;60317;48.880;-0.862;2023-10-08T02:28:11;101269.88;;;18.90;55.76
72359;BME280;60317;48.880;-0.862;2023-10-08T02:30:39;101270.84;;;18.89;55.74
72359;BME280;60317;48.880;-0.862;2023-10-08T02:33:05;101266.34;;;18.90;55.65
72359;BME280;60317;48.880;-0.862;2023-10-08T02:35:32;101269.09;;;18.88;55.61
72359;BME280;60317;48.880;-0.862;2023-10-08T02:37:58;101267.31;;;18.89;55.52
72359;BME280;60317;48.880;-0.862;2023-10-08T02:40:25;101267.41;;;18.87;55.67
72359;BME280;60317;48.880;-0.862;2023-10-08T02:42:51;101258.38;;;18.88;55.57
72359;BME280;60317;48.880;-0.862;2023-10-08T02:45:18;101269.09;;;18.88;55.67
72359;BME280;60317;48.880;-0.862;2023-10-08T02:47:45;101266.41;;;18.88;55.56
72359;BME280;60317;48.880;-0.862;2023-10-08T02:50:12;101262.88;;;18.88;55.62
72359;BME280;60317;48.880;-0.862;2023-10-08T02:52:38;101266.41;;;18.88;55.70
72359;BME280;60317;48.880;-0.862;2023-10-08T02:55:05;101261.19;;;18.87;55.54
72359;BME280;60317;48.880;-0.862;2023-10-08T02:57:31;101259.34;;;18.87;55.61
72359;BME280;60317;48.880;-0.862;2023-10-08T02:59:57;101264.72;;;18.87;55.71
72359;BME280;60317;48.880;-0.862;2023-10-08T03:02:24;101263.88;;;18.87;55.51
72359;BME280;60317;48.880;-0.862;2023-10-08T03:04:52;101259.34;;;18.87;55.49
72359;BME280;60317;48.880;-0.862;2023-10-08T03:07:18;101262.03;;;18.87;55.50
72359;BME280;60317;48.880;-0.862;2023-10-08T03:09:45;101251.44;;;18.86;55.48
72359;BME280;60317;48.880;-0.862;2023-10-08T03:12:11;101258.50;;;18.87;55.46
72359;BME280;60317;48.880;-0.862;2023-10-08T03:14:38;101246.09;;;18.86;55.54
72359;BME280;60317;48.880;-0.862;2023-10-08T03:17:04;101253.16;;;18.87;55.53
72359;BME280;60317;48.880;-0.862;2023-10-08T03:19:30;101248.75;;;18.86;55.42
72359;BME280;60317;48.880;-0.862;2023-10-08T03:21:58;101258.63;;;18.85;55.45
72359;BME280;60317;48.880;-0.862;2023-10-08T03:24:24;101264.84;;;18.86;55.50
72359;BME280;60317;48.880;-0.862;2023-10-08T03:26:51;101268.38;;;18.86;55.42
72359;BME280;60317;48.880;-0.862;2023-10-08T03:29:17;101267.50;;;18.86;55.52
72359;BME280;60317;48.880;-0.862;2023-10-08T03:31:43;101268.44;;;18.84;55.29
72359;BME280;60317;48.880;-0.862;2023-10-08T03:34:10;101277.38;;;18.85;55.38
72359;BME280;60317;48.880;-0.862;2023-10-08T03:36:37;101279.16;;;18.84;55.44
72359;BME280;60317;48.880;-0.862;2023-10-08T03:39:04;101283.59;;;18.86;55.40
72359;BME280;60317;48.880;-0.862;2023-10-08T03:41:31;101281.84;;;18.84;55.32
72359;BME280;60317;48.880;-0.862;2023-10-08T03:43:57;101280.13;;;18.83;55.42
72359;BME280;60317;48.880;-0.862;2023-10-08T03:46:24;101281.00;;;18.84;55.13
72359;BME280;60317;48.880;-0.862;2023-10-08T03:48:50;101287.19;;;18.84;55.24
72359;BME280;60317;48.880;-0.862;2023-10-08T03:51:16;101283.78;;;18.82;55.40
72359;BME280;60317;48.880;-0.862;2023-10-08T03:53:43;101286.34;;;18.84;55.25
72359;BME280;60317;48.880;-0.862;2023-10-08T03:56:10;101281.84;;;18.84;55.40
72359;BME280;60317;48.880;-0.862;2023-10-08T03:58:37;101287.19;;;18.84;55.30
72359;BME280;60317;48.880;-0.862;2023-10-08T04:01:03;101280.13;;;18.83;55.31
72359;BME280;60317;48.880;-0.862;2023-10-08T04:03:29;101284.63;;;18.83;55.24
72359;BME280;60317;48.880;-0.862;2023-10-08T04:05:56;101284.63;;;18.83;55.33
72359;BME280;60317;48.880;-0.862;2023-10-08T04:08:22;101290.00;;;18.83;55.27
72359;BME280;60317;48.880;-0.862;2023-10-08T04:10:49;101282.81;;;18.83;54.98
72359;BME280;60317;48.880;-0.862;2023-10-08T04:13:16;101287.31;;;18.83;55.25
72359;BME280;60317;48.880;-0.862;2023-10-08T04:15:43;101284.63;;;18.83;55.17
72359;BME280;60317;48.880;-0.862;2023-10-08T04:18:10;101286.53;;;18.81;55.22
72359;BME280;60317;48.880;-0.862;2023-10-08T04:20:37;101277.56;;;18.82;55.30
72359;BME280;60317;48.880;-0.862;2023-10-08T04:23:05;101278.44;;;18.82;55.12
72359;BME280;60317;48.880;-0.862;2023-10-08T04:25:32;101275.84;;;18.81;55.22
72359;BME280;60317;48.880;-0.862;2023-10-08T04:27:59;101281.19;;;18.81;55.11
72359;BME280;60317;48.880;-0.862;2023-10-08T04:30:27;101282.94;;;18.82;55.20
72359;BME280;60317;48.880;-0.862;2023-10-08T04:32:53;101281.09;;;18.82;55.15
72359;BME280;60317;48.880;-0.862;2023-10-08T04:35:20;101290.97;;;18.82;55.17
72359;BME280;60317;48.880;-0.862;2023-10-08T04:37:46;101299.94;;;18.81;55.07
72359;BME280;60317;48.880;-0.862;2023-10-08T04:40:12;101292.88;;;18.80;55.18
72359;BME280;60317;48.880;-0.862;2023-10-08T04:42:39;101300.91;;;18.80;55.08
72359;BME280;60317;48.880;-0.862;2023-10-08T04:45:08;101300.06;;;18.79;54.93
72359;BME280;60317;48.880;-0.862;2023-10-08T04:47:36;101306.25;;;18.80;54.96
72359;BME280;60317;48.880;-0.862;2023-10-08T04:50:03;101307.97;;;18.81;54.96
72359;BME280;60317;48.880;-0.862;2023-10-08T04:52:29;101298.22;;;18.80;55.01
72359;BME280;60317;48.880;-0.862;2023-10-08T04:54:55;101310.66;;;18.81;55.04
72359;BME280;60317;48.880;-0.862;2023-10-08T04:57:22;101312.47;;;18.80;54.86
72359;BME280;60317;48.880;-0.862;2023-10-08T04:59:48;101304.56;;;18.79;54.90
72359;BME280;60317;48.880;-0.862;2023-10-08T05:02:15;101309.91;;;18.79;54.93
72359;BME280;60317;48.880;-0.862;2023-10-08T05:04:43;101296.53;;;18.79;54.93
72359;BME280;60317;48.880;-0.862;2023-10-08T05:07:09;101289.47;;;18.78;54.92
72359;BME280;60317;48.880;-0.862;2023-10-08T05:09:36;101290.31;;;18.78;55.01
72359;BME280;60317;48.880;-0.862;2023-10-08T05:12:02;101296.53;;;18.79;55.01
72359;BME280;60317;48.880;-0.862;2023-10-08T05:14:28;101292.13;;;18.78;54.87
72359;BME280;60317;48.880;-0.862;2023-10-08T05:16:55;101288.50;;;18.79;54.99
72359;BME280;60317;48.880;-0.862;2023-10-08T05:19:21;101292.13;;;18.78;54.92
72359;BME280;60317;48.880;-0.862;2023-10-08T05:21:49;101292.13;;;18.78;54.79
72359;BME280;60317;48.880;-0.862;2023-10-08T05:24:15;101301.09;;;18.77;54.96
72359;BME280;60317;48.880;-0.862;2023-10-08T05:26:42;101307.31;;;18.77;54.91
72359;BME280;60317;48.880;-0.862;2023-10-08T05:29:08;101303.78;;;18.77;54.85
72359;BME280;60317;48.880;-0.862;2023-10-08T05:31:35;101314.50;;;18.77;54.83
72359;BME280;60317;48.880;-0.862;2023-10-08T05:34:02;101319.84;;;18.77;54.78
72359;BME280;60317;48.880;-0.862;2023-10-08T05:36:29;101325.22;;;18.77;54.89
72359;BME280;60317;48.880;-0.862;2023-10-08T05:38:56;101324.28;;;18.78;54.74
72359;BME280;60317;48.880;-0.862;2023-10-08T05:41:23;101327.88;;;18.77;54.86
72359;BME280;60317;48.880;-0.862;2023-10-08T05:43:49;101333.25;;;18.77;54.76
72359;BME280;60317;48.880;-0.862;2023-10-08T05:46:15;101324.34;;;18.76;54.82
72359;BME280;60317;48.880;-0.862;2023-10-08T05:48:42;101324.47;;;18.75;54.80
72359;BME280;60317;48.880;-0.862;2023-10-08T05:51:08;101330.69;;;18.75;54.70
72359;BME280;60317;48.880;-0.862;2023-10-08T05:53:35;101320.81;;;18.76;54.77
72359;BME280;60317;48.880;-0.862;2023-10-08T05:56:06;101322.66;;;18.75;54.70
72359;BME280;60317;48.880;-0.862;2023-10-08T05:58:32;101320.81;;;18.76;54.68
72359;BME280;60317;48.880;-0.862;2023-10-08T06:00:58;101324.47;;;18.75;54.62
72359;BME280;60317;48.880;-0.862;2023-10-08T06:03:25;101320.94;;;18.74;54.73
72359;BME280;60317;48.880;-0.862;2023-10-08T06:05:51;101319.13;;;18.75;54.61
72359;BME280;60317;48.880;-0.862;2023-10-08T06:08:18;101330.69;;;18.75;54.61
72359;BME280;60317;48.880;-0.862;2023-10-08T06:10:44;101320.06;;;18.74;54.61
72359;BME280;60317;48.880;-0.862;2023-10-08T06:13:12;101312.91;;;18.74;54.66
72359;BME280;60317;48.880;-0.862;2023-10-08T06:15:39;101317.38;;;18.74;54.71
72359;BME280;60317;48.880;-0.862;2023-10-08T06:18:06;101325.41;;;18.74;54.60
72359;BME280;60317;48.880;-0.862;2023-10-08T06:20:34;101320.94;;;18.74;54.50
72359;BME280;60317;48.880;-0.862;2023-10-08T06:23:00;101316.53;;;18.73;54.48
72359;BME280;60317;48.880;-0.862;2023-10-08T06:25:26;101325.41;;;18.74;54.50
72359;BME280;60317;48.880;-0.862;2023-10-08T06:27:53;101325.41;;;18.74;54.48
72359;BME280;60317;48.880;-0.862;2023-10-08T06:30:21;101329.06;;;18.73;54.56
72359;BME280;60317;48.880;-0.862;2023-10-08T06:32:47;101335.28;;;18.73;54.60
72359;BME280;60317;48.880;-0.862;2023-10-08T06:35:13;101318.34;;;18.73;54.53
72359;BME280;60317;48.880;-0.862;2023-10-08T06:37:40;101338.81;;;18.74;54.46
72359;BME280;60317;48.880;-0.862;2023-10-08T06:40:07;101331.75;;;18.73;54.54
72359;BME280;60317;48.880;-0.862;2023-10-08T06:42:33;101329.06;;;18.73;54.46
72359;BME280;60317;48.880;-0.862;2023-10-08T06:45:00;101329.91;;;18.73;54.47
72359;BME280;60317;48.880;-0.862;2023-10-08T06:47:27;101334.41;;;18.73;54.44
72359;BME280;60317;48.880;-0.862;2023-10-08T06:49:54;101337.94;;;18.73;54.42
72359;BME280;60317;48.880;-0.862;2023-10-08T06:52:20;101341.59;;;18.72;54.55
72359;BME280;60317;48.880;-0.862;2023-10-08T06:54:46;101340.75;;;18.72;54.49
72359;BME280;60317;48.880;-0.862;2023-10-08T06:57:13;101343.41;;;18.72;54.37
72359;BME280;60317;48.880;-0.862;2023-10-08T06:59:39;101343.41;;;18.72;54.43
72359;BME280;60317;48.880;-0.862;2023-10-08T07:02:05;101338.06;;;18.72;54.35
72359;BME280;60317;48.880;-0.862;2023-10-08T07:04:33;101340.75;;;18.72;54.52
72359;BME280;60317;48.880;-0.862;2023-10-08T07:07:00;101349.63;;;18.72;54.37
72359;BME280;60317;48.880;-0.862;2023-10-08T07:09:26;101341.59;;;18.72;54.42
72359;BME280;60317;48.880;-0.862;2023-10-08T07:11:54;101348.78;;;18.72;54.37
72359;BME280;60317;48.880;-0.862;2023-10-08T07:14:21;101348.66;;;18.73;54.46
72359;BME280;60317;48.880;-0.862;2023-10-08T07:16:47;101350.47;;;18.73;54.46
72359;BME280;60317;48.880;-0.862;2023-10-08T07:19:14;101352.31;;;18.72;54.31
72359;BME280;60317;48.880;-0.862;2023-10-08T07:21:41;101350.47;;;18.73;54.36
72359;BME280;60317;48.880;-0.862;2023-10-08T07:24:08;101353.16;;;18.73;54.24
72359;BME280;60317;48.880;-0.862;2023-10-08T07:26:34;101358.50;;;18.73;54.23
72359;BME280;60317;48.880;-0.862;2023-10-08T07:29:01;101354.13;;;18.72;54.30
72359;BME280;60317;48.880;-0.862;2023-10-08T07:31:28;101356.69;;;18.73;54.30
72359;BME280;60317;48.880;-0.862;2023-10-08T07:33:54;101351.44;;;18.72;54.31
72359;BME280;60317;48.880;-0.862;2023-10-08T07:36:21;101359.47;;;18.72;54.18
72359;BME280;60317;48.880;-0.862;2023-10-08T07:38:49;101357.66;;;18.72;54.31
72359;BME280;60317;48.880;-0.862;2023-10-08T07:41:15;101354.97;;;18.72;54.35
72359;BME280;60317;48.880;-0.862;2023-10-08T07:43:41;101351.44;;;18.72;54.22
72359;BME280;60317;48.880;-0.862;2023-10-08T07:46:08;101358.50;;;18.73;54.24
72359;BME280;60317;48.880;-0.862;2023-10-08T07:48:34;101364.72;;;18.73;54.29
72359;BME280;60317;48.880;-0.862;2023-10-08T07:51:01;101368.38;;;18.72;54.26
72359;BME280;60317;48.880;-0.862;2023-10-08T07:53:27;101365.59;;;18.74;54.44
72359;BME280;60317;48.880;-0.862;2023-10-08T07:55:55;101369.22;;;18.73;54.27
72359;BME280;60317;48.880;-0.862;2023-10-08T07:58:21;101363.03;;;18.72;54.37
72359;BME280;60317;48.880;-0.862;2023-10-08T08:00:48;101368.38;;;18.72;54.46
72359;BME280;60317;48.880;-0.862;2023-10-08T08:03:14;101370.09;;;18.73;54.27
72359;BME280;60317;48.880;-0.862;2023-10-08T08:05:41;101364.72;;;18.73;54.30
72359;BME280;60317;48.880;-0.862;2023-10-08T08:08:07;101363.88;;;18.73;54.40
72359;BME280;60317;48.880;-0.862;2023-10-08T08:10:33;101371.81;;;18.74;54.30
72359;BME280;60317;48.880;-0.862;2023-10-08T08:13:01;101358.50;;;18.73;54.30
72359;BME280;60317;48.880;-0.862;2023-10-08T08:15:27;101370.09;;;18.73;54.44
72359;BME280;60317;48.880;-0.862;2023-10-08T08:17:54;101368.25;;;18.74;54.42
72359;BME280;60317;48.880;-0.862;2023-10-08T08:20:20;101362.91;;;18.74;54.50
72359;BME280;60317;48.880;-0.862;2023-10-08T08:22:46;101359.38;;;18.73;54.41
72359;BME280;60317;48.880;-0.862;2023-10-08T08:25:13;101364.72;;;18.73;54.54
72359;BME280;60317;48.880;-0.862;2023-10-08T08:27:39;101357.56;;;18.74;54.40
72359;BME280;60317;48.880;-0.862;2023-10-08T08:30:08;101353.16;;;18.73;54.58
72359;BME280;60317;48.880;-0.862;2023-10-08T08:32:34;101354.00;;;18.73;54.49
72359;BME280;60317;48.880;-0.862;2023-10-08T08:35:01;101354.00;;;18.73;54.55
72359;BME280;60317;48.880;-0.862;2023-10-08T08:37:27;101356.59;;;18.75;54.61
72359;BME280;60317;48.880;-0.862;2023-10-08T08:39:53;101353.94;;;18.75;54.69
72359;BME280;60317;48.880;-0.862;2023-10-08T08:42:23;101345.03;;;18.74;54.60
72359;BME280;60317;48.880;-0.862;2023-10-08T08:44:49;101356.59;;;18.75;54.74
72359;BME280;60317;48.880;-0.862;2023-10-08T08:47:17;101346.75;;;18.75;54.62
72359;BME280;60317;48.880;-0.862;2023-10-08T08:49:45;101344.06;;;18.75;54.77
72359;BME280;60317;48.880;-0.862;2023-10-08T08:52:12;101340.44;;;18.76;54.94
72359;BME280;60317;48.880;-0.862;2023-10-08T08:54:39;101338.72;;;18.75;54.82
72359;BME280;60317;48.880;-0.862;2023-10-08T08:57:09;101341.41;;;18.75;54.89
72359;BME280;60317;48.880;-0.862;2023-10-08T08:59:36;101332.38;;;18.76;54.93
72359;BME280;60317;48.880;-0.862;2023-10-08T09:02:02;101343.03;;;18.78;54.92
72359;BME280;60317;48.880;-0.862;2023-10-08T09:04:30;101346.63;;;18.77;54.99
72359;BME280;60317;48.880;-0.862;2023-10-08T09:06:57;101340.44;;;18.76;55.07
72359;BME280;60317;48.880;-0.862;2023-10-08T09:09:30;101342.13;;;18.77;55.28
72359;BME280;60317;48.880;-0.862;2023-10-08T09:11:57;101337.75;;;18.76;55.17
72359;BME280;60317;48.880;-0.862;2023-10-08T09:14:25;101347.41;;;18.79;55.34
72359;BME280;60317;48.880;-0.862;2023-10-08T09:16:51;101347.41;;;18.79;55.21
72359;BME280;60317;48.880;-0.862;2023-10-08T09:19:18;101344.81;;;18.77;55.21
72359;BME280;60317;48.880;-0.862;2023-10-08T09:21:47;101335.84;;;18.78;55.27
72359;BME280;60317;48.880;-0.862;2023-10-08T09:24:25;101338.41;;;18.80;55.15
72359;BME280;60317;48.880;-0.862;2023-10-08T09:26:51;101334.75;;;18.81;55.27
72359;BME280;60317;48.880;-0.862;2023-10-08T09:29:18;101329.41;;;18.81;55.29
72359;BME280;60317;48.880;-0.862;2023-10-08T09:31:51;101328.47;;;18.82;55.33
72359;BME280;60317;48.880;-0.862;2023-10-08T09:34:17;101317.75;;;18.82;55.41
72359;BME280;60317;48.880;-0.862;2023-10-08T09:36:43;101325.78;;;18.82;55.30
72359;BME280;60317;48.880;-0.862;2023-10-08T09:39:11;101323.84;;;18.84;55.30
72359;BME280;60317;48.880;-0.862;2023-10-08T09:41:38;101321.28;;;18.82;55.39
72359;BME280;60317;48.880;-0.862;2023-10-08T09:44:06;101317.53;;;18.85;55.20
72359;BME280;60317;48.880;-0.862;2023-10-08T09:46:33;101314.75;;;18.87;55.23
72359;BME280;60317;48.880;-0.862;2023-10-08T09:49:00;101315.59;;;18.87;55.51
72359;BME280;60317;48.880;-0.862;2023-10-08T09:51:28;101312.94;;;18.87;55.58
72359;BME280;60317;48.880;-0.862;2023-10-08T09:54:10;101320.13;;;18.87;55.72
72359;BME280;60317;48.880;-0.862;2023-10-08T09:56:39;101324.50;;;18.88;55.71
72359;BME280;60317;48.880;-0.862;2023-10-08T09:59:05;101314.63;;;18.88;55.68
72359;BME280;60317;48.880;-0.862;2023-10-08T10:01:32;101314.63;;;18.88;55.52
72359;BME280;60317;48.880;-0.862;2023-10-08T10:03:59;101312.84;;;18.89;55.62
72359;BME280;60317;48.880;-0.862;2023-10-08T10:06:26;101310.16;;;18.89;55.81
72359;BME280;60317;48.880;-0.862;2023-10-08T10:08:53;101302.97;;;18.89;55.46
72359;BME280;60317;48.880;-0.862;2023-10-08T10:11:25;101301.16;;;18.90;55.60
72359;BME280;60317;48.880;-0.862;2023-10-08T10:14:00;101302.00;;;18.90;55.73
72359;BME280;60317;48.880;-0.862;2023-10-08T10:16:26;101302.88;;;18.91;55.74
72359;BME280;60317;48.880;-0.862;2023-10-08T10:18:54;101302.00;;;18.90;55.72
72359;BME280;60317;48.880;-0.862;2023-10-08T10:21:25;101294.84;;;18.91;55.83
72359;BME280;60317;48.880;-0.862;2023-10-08T10:23:52;101300.09;;;18.92;55.72
72359;BME280;60317;48.880;-0.862;2023-10-08T10:26:22;101297.50;;;18.91;55.75
72359;BME280;60317;48.880;-0.862;2023-10-08T10:31:33;101296.44;;;18.93;55.81
72359;BME280;60317;48.880;-0.862;2023-10-08T10:33:59;101293.78;;;18.93;55.99
72359;BME280;60317;48.880;-0.862;2023-10-08T10:36:30;101302.66;;;18.94;56.06
72359;BME280;60317;48.880;-0.862;2023-10-08T10:38:56;101292.06;;;18.92;56.02
72359;BME280;60317;48.880;-0.862;2023-10-08T10:41:23;101300.84;;;18.94;55.96
72359;BME280;60317;48.880;-0.862;2023-10-08T10:43:49;101305.22;;;18.95;56.05
72359;BME280;60317;48.880;-0.862;2023-10-08T10:46:15;101304.38;;;18.95;56.06
72359;BME280;60317;48.880;-0.862;2023-10-08T10:48:44;101304.28;;;18.96;55.85
72359;BME280;60317;48.880;-0.862;2023-10-08T10:51:10;101304.16;;;18.98;55.87
72359;BME280;60317;48.880;-0.862;2023-10-08T10:53:37;101301.59;;;18.96;55.89
72359;BME280;60317;48.880;-0.862;2023-10-08T10:56:04;101303.44;;;18.96;56.02
72359;BME280;60317;48.880;-0.862;2023-10-08T10:58:31;101306.84;;;18.98;55.77
72359;BME280;60317;48.880;-0.862;2023-10-08T11:00:57;101302.34;;;18.98;56.03
72359;BME280;60317;48.880;-0.862;2023-10-08T11:03:23;101305.03;;;18.98;56.02
72359;BME280;60317;48.880;-0.862;2023-10-08T11:05:53;101300.53;;;18.99;55.88
72359;BME280;60317;48.880;-0.862;2023-10-08T11:08:21;101297.84;;;18.99;55.97
72359;BME280;60317;48.880;-0.862;2023-10-08T11:10:47;101296.91;;;19.00;55.88
72359;BME280;60317;48.880;-0.862;2023-10-08T11:13:14;101300.44;;;19.00;56.07
72359;BME280;60317;48.880;-0.862;2023-10-08T11:15:42;101301.28;;;19.01;56.00
72359;BME280;60317;48.880;-0.862;2023-10-08T11:18:09;101296.78;;;19.01;56.08
72359;BME280;60317;48.880;-0.862;2023-10-08T11:20:35;101298.53;;;19.02;55.85
72359;BME280;60317;48.880;-0.862;2023-10-08T11:23:04;101303.88;;;19.02;55.98
72359;BME280;60317;48.880;-0.862;2023-10-08T11:25:30;101299.38;;;19.03;55.93
72359;BME280;60317;48.880;-0.862;2023-10-08T11:27:56;101298.53;;;19.02;55.94
72359;BME280;60317;48.880;-0.862;2023-10-08T11:30:23;101300.22;;;19.03;56.06
72359;BME280;60317;48.880;-0.862;2023-10-08T11:32:49;101291.22;;;19.04;55.97
72359;BME280;60317;48.880;-0.862;2023-10-08T11:35:16;101290.25;;;19.05;56.06
72359;BME280;60317;48.880;-0.862;2023-10-08T11:37:44;101293.91;;;19.04;56.06
72359;BME280;60317;48.880;-0.862;2023-10-08T11:40:20;101285.00;;;19.04;56.11
72359;BME280;60317;48.880;-0.862;2023-10-08T11:42:47;101285.84;;;19.04;56.23
72359;BME280;60317;48.880;-0.862;2023-10-08T11:45:14;101295.59;;;19.05;56.05
72359;BME280;60317;48.880;-0.862;2023-10-08T11:47:40;101277.81;;;19.04;56.08
72359;BME280;60317;48.880;-0.862;2023-10-08T11:50:07;101275.91;;;19.06;56.17
72359;BME280;60317;48.880;-0.862;2023-10-08T11:52:33;101284.88;;;19.05;56.02
72359;BME280;60317;48.880;-0.862;2023-10-08T11:54:59;101269.69;;;19.06;56.10
72359;BME280;60317;48.880;-0.862;2023-10-08T11:57:27;101266.91;;;19.07;56.08
72359;BME280;60317;48.880;-0.862;2023-10-08T11:59:53;101268.59;;;19.08;56.07
72359;BME280;60317;48.880;-0.862;2023-10-08T12:02:20;101264.22;;;19.07;56.21
72359;BME280;60317;48.880;-0.862;2023-10-08T12:04:46;101266.91;;;19.07;56.23
72359;BME280;60317;48.880;-0.862;2023-10-08T12:07:13;101263.25;;;19.08;56.26
72359;BME280;60317;48.880;-0.862;2023-10-08T12:09:39;101257.88;;;19.08;56.17
72359;BME280;60317;48.880;-0.862;2023-10-08T12:12:06;101252.53;;;19.08;56.21
72359;BME280;60317;48.880;-0.862;2023-10-08T12:14:33;101253.28;;;19.11;56.21
72359;BME280;60317;48.880;-0.862;2023-10-08T12:17:00;101255.13;;;19.10;56.15
72359;BME280;60317;48.880;-0.862;2023-10-08T12:19:26;101243.56;;;19.10;56.30
72359;BME280;60317;48.880;-0.862;2023-10-08T12:21:52;101252.31;;;19.12;56.09
72359;BME280;60317;48.880;-0.862;2023-10-08T12:24:19;101242.47;;;19.12;56.21
72359;BME280;60317;48.880;-0.862;2023-10-08T12:26:45;101241.59;;;19.12;56.27
72359;BME280;60317;48.880;-0.862;2023-10-08T12:29:13;101237.94;;;19.13;56.22
72359;BME280;60317;48.880;-0.862;2023-10-08T12:31:41;101232.59;;;19.13;56.34
72359;BME280;60317;48.880;-0.862;2023-10-08T12:34:07;101241.59;;;19.12;56.25
72359;BME280;60317;48.880;-0.862;2023-10-08T12:36:33;101235.19;;;19.14;56.21
72359;BME280;60317;48.880;-0.862;2023-10-08T12:39:00;101239.69;;;19.14;56.20
72359;BME280;60317;48.880;-0.862;2023-10-08T12:41:26;101231.66;;;19.14;56.19